Time;durP1;ratioP1;P1;durP2;ratioP2;P2;SDS_P1;SDS_P2;PMS_P1;PMS_P2;Temp;Humidity;BMP_temperature;BMP_pressure;BME280_temperature;BME280_humidity;BME280_pressure;Samples;Min_cycle;Max_cycle;Signal;HPM_P1;HPM_P2
2021/05/13 00:01:21;;;;;;;20.50;11.95;;;10.70;99.90;;;;;;4988751;28;20055;-66
2021/05/13 00:03:48;;;;;;;21.65;12.73;;;10.60;99.90;;;;;;4984666;28;20853;-65
2021/05/13 00:06:14;;;;;;;21.42;13.55;;;10.60;99.90;;;;;;4984347;28;20553;-65
2021/05/13 00:08:41;;;;;;;26.70;14.02;;;10.60;99.90;;;;;;4981571;28;20049;-65
2021/05/13 00:11:09;;;;;;;29.00;15.63;;;10.60;99.90;;;;;;4986081;28;20542;-65
2021/05/13 00:13:38;;;;;;;24.95;14.88;;;10.50;99.90;;;;;;4980998;28;20065;-65
2021/05/13 00:16:06;;;;;;;27.75;14.50;;;10.60;99.90;;;;;;4982688;28;20537;-65
2021/05/13 00:18:33;;;;;;;28.35;14.98;;;10.50;99.90;;;;;;4982584;28;20057;-66
2021/05/13 00:21:01;;;;;;;22.92;14.07;;;10.60;99.90;;;;;;4986596;28;20160;-65
2021/05/13 00:23:27;;;;;;;24.33;15.13;;;10.60;99.90;;;;;;4983970;28;20050;-65
2021/05/13 00:25:54;;;;;;;24.60;15.55;;;10.50;99.90;;;;;;4985083;28;20061;-65
2021/05/13 00:28:22;;;;;;;29.45;16.65;;;10.50;99.90;;;;;;4978354;28;20089;-65
2021/05/13 00:30:48;;;;;;;27.90;16.95;;;10.50;99.90;;;;;;4982075;28;20557;-66
2021/05/13 00:33:15;;;;;;;29.48;16.67;;;10.40;99.90;;;;;;4982527;28;20088;-65
2021/05/13 00:35:42;;;;;;;28.42;17.10;;;10.50;99.90;;;;;;4980024;28;20529;-65
2021/05/13 00:38:09;;;;;;;29.35;17.65;;;10.50;99.90;;;;;;4979061;28;20145;-65
2021/05/13 00:40:35;;;;;;;27.90;17.35;;;10.40;99.90;;;;;;4979155;28;20081;-65
2021/05/13 00:43:03;;;;;;;29.98;17.00;;;10.50;99.90;;;;;;4979880;28;20100;-66
2021/05/13 00:45:30;;;;;;;32.75;17.55;;;10.50;99.90;;;;;;4980344;28;20510;-65
2021/05/13 00:48:05;;;;;;;32.42;17.48;;;10.50;99.90;;;;;;4981014;28;20985;-65
2021/05/13 00:50:32;;;;;;;29.58;17.80;;;10.50;99.90;;;;;;4981392;28;20061;-65
2021/05/13 00:53:04;;;;;;;32.38;18.70;;;10.50;99.90;;;;;;4986926;28;20060;-65
2021/05/13 00:55:31;;;;;;;30.48;18.42;;;10.50;99.90;;;;;;4980924;28;20050;-65
2021/05/13 00:57:57;;;;;;;38.30;21.00;;;10.50;99.90;;;;;;4978729;28;20080;-66
2021/05/13 01:00:41;;;;;;;35.97;20.10;;;10.50;99.90;;;;;;4984020;28;20510;-66
2021/05/13 01:03:08;;;;;;;39.17;21.95;;;10.40;99.90;;;;;;4978998;28;20124;-66
2021/05/13 01:05:37;;;;;;;40.88;23.00;;;10.40;99.90;;;;;;4974156;28;20165;-66
2021/05/13 01:08:06;;;;;;;38.08;21.75;;;10.50;99.90;;;;;;4975283;28;20107;-66
2021/05/13 01:10:33;;;;;;;44.30;23.13;;;10.50;99.90;;;;;;4978487;28;20058;-66
2021/05/13 01:13:03;;;;;;;40.58;22.42;;;10.50;99.90;;;;;;4979248;28;20132;-65
2021/05/13 01:15:36;;;;;;;45.70;23.75;;;10.40;99.90;;;;;;4979904;28;20133;-66
2021/05/13 01:18:07;;;;;;;44.45;23.70;;;10.50;99.90;;;;;;4982356;28;20053;-66
2021/05/13 01:20:35;;;;;;;44.92;24.40;;;10.50;99.90;;;;;;4983249;28;20127;-66
2021/05/13 01:23:03;;;;;;;51.15;26.08;;;10.50;99.90;;;;;;4983176;28;20049;-65
2021/05/13 01:25:30;;;;;;;49.03;26.83;;;10.40;99.90;;;;;;4982300;28;20548;-65
2021/05/13 01:27:58;;;;;;;44.22;23.90;;;10.50;99.90;;;;;;4980021;28;20422;-65
2021/05/13 01:30:25;;;;;;;41.03;22.38;;;10.50;99.90;;;;;;4981386;28;20161;-65
2021/05/13 01:32:51;;;;;;;41.80;23.23;;;10.50;99.90;;;;;;4978375;28;20078;-65
2021/05/13 01:35:18;;;;;;;;;;;10.50;99.90;;;;;;4982060;28;20713;-65
2021/05/13 01:37:44;;;;;;;36.00;20.40;;;10.50;99.90;;;;;;4980190;28;19921;-65
2021/05/13 01:40:13;;;;;;;40.42;22.58;;;10.40;99.90;;;;;;4984217;28;20714;-66
2021/05/13 01:42:40;;;;;;;39.22;23.10;;;10.40;99.90;;;;;;4980029;28;20060;-66
2021/05/13 01:45:08;;;;;;;43.88;23.50;;;10.40;99.90;;;;;;4981085;28;20112;-66
2021/05/13 01:47:35;;;;;;;38.78;23.10;;;10.40;99.90;;;;;;4976848;28;20096;-66
2021/05/13 01:50:04;;;;;;;42.08;22.75;;;10.40;99.90;;;;;;4980234;28;20045;-66
2021/05/13 01:52:31;;;;;;;42.53;23.90;;;10.50;99.90;;;;;;4984491;28;20115;-65
2021/05/13 01:54:57;;;;;;;40.03;22.33;;;10.50;99.90;;;;;;4983662;28;20053;-66
2021/05/13 01:57:24;;;;;;;38.00;21.05;;;10.40;99.90;;;;;;4980344;28;20045;-66
2021/05/13 01:59:51;;;;;;;36.95;21.00;;;10.40;99.90;;;;;;4985417;28;20130;-66
2021/05/13 02:02:20;;;;;;;;;;;10.30;99.90;;;;;;4985086;28;20076;-66
2021/05/13 02:04:47;;;;;;;39.55;20.38;;;10.40;99.90;;;;;;4986511;28;19932;-66
2021/05/13 02:07:14;;;;;;;34.65;20.20;;;10.30;99.90;;;;;;4985050;28;20345;-66
2021/05/13 02:09:40;;;;;;;39.60;21.92;;;10.30;99.90;;;;;;4985714;28;20517;-66
2021/05/13 02:12:08;;;;;;;37.33;21.02;;;10.40;99.90;;;;;;4986555;28;20147;-66
2021/05/13 02:14:35;;;;;;;39.28;21.95;;;10.30;99.90;;;;;;4984558;28;20065;-66
2021/05/13 02:17:02;;;;;;;40.63;21.90;;;10.30;99.90;;;;;;4983231;28;20061;-66
2021/05/13 02:19:29;;;;;;;45.35;23.10;;;10.30;99.90;;;;;;4985255;28;20050;-66
2021/05/13 02:21:55;;;;;;;38.83;22.42;;;10.20;99.90;;;;;;4985924;28;20062;-66
2021/05/13 02:24:21;;;;;;;;;;;10.30;99.90;;;;;;4985137;28;20096;-66
2021/05/13 02:26:48;;;;;;;35.38;20.67;;;10.20;99.90;;;;;;4982290;28;19964;-66
2021/05/13 02:29:14;;;;;;;38.65;20.17;;;10.30;99.90;;;;;;4985780;28;20111;-66
2021/05/13 02:31:42;;;;;;;38.92;21.60;;;10.20;99.90;;;;;;4985930;28;20081;-66
2021/05/13 02:34:08;;;;;;;39.72;21.92;;;10.30;99.90;;;;;;4988812;28;20265;-66
2021/05/13 02:36:36;;;;;;;46.05;22.55;;;10.40;99.90;;;;;;4984778;28;20077;-65
2021/05/13 02:39:05;;;;;;;43.65;22.88;;;10.40;99.90;;;;;;4983452;28;20059;-66
2021/05/13 02:41:32;;;;;;;41.58;23.45;;;10.30;99.90;;;;;;4983399;28;20535;-65
2021/05/13 02:43:58;;;;;;;40.55;22.90;;;10.30;99.90;;;;;;4983273;28;20093;-65
2021/05/13 02:46:25;;;;;;;;;;;10.40;99.90;;;;;;4983600;28;20057;-65
2021/05/13 02:48:52;;;;;;;45.72;23.42;;;10.30;99.90;;;;;;4983961;28;19921;-65
2021/05/13 02:51:18;;;;;;;44.47;22.85;;;10.20;99.90;;;;;;4984988;28;20571;-65
2021/05/13 02:53:45;;;;;;;;;;;10.20;99.90;;;;;;4984779;28;20135;-65
2021/05/13 02:56:11;;;;;;;40.58;22.10;;;10.30;99.90;;;;;;4983513;28;19972;-66
2021/05/13 02:58:37;;;;;;;;;;;10.30;99.90;;;;;;4985387;28;20057;-65
2021/05/13 03:01:21;;;;;;;39.97;21.40;;;10.20;99.90;;;;;;4986345;28;19924;-65
2021/05/13 03:03:48;;;;;;;51.75;24.83;;;10.20;99.90;;;;;;4983421;28;20140;-65
2021/05/13 03:06:16;;;;;;;52.70;24.95;;;10.10;99.90;;;;;;4984425;28;20084;-66
2021/05/13 03:08:42;;;;;;;51.60;26.30;;;10.10;99.90;;;;;;4983233;28;20131;-65
2021/05/13 03:11:09;;;;;;;51.50;25.65;;;10.10;99.90;;;;;;4985739;28;20131;-65
2021/05/13 03:13:37;;;;;;;49.20;25.83;;;10.10;99.90;;;;;;4986154;28;20090;-65
2021/05/13 03:16:04;;;;;;;52.10;26.48;;;10.20;99.90;;;;;;4987327;28;20053;-66
2021/05/13 03:18:33;;;;;;;47.83;24.98;;;10.10;99.90;;;;;;4984801;28;20050;-65
2021/05/13 03:21:04;;;;;;;52.38;25.55;;;10.20;99.90;;;;;;4983101;28;20066;-65
2021/05/13 03:23:40;;;;;;;50.50;27.13;;;10.20;99.90;;;;;;4984543;28;20054;-65
2021/05/13 03:26:06;;;;;;;51.47;27.25;;;10.30;99.90;;;;;;4984000;28;20084;-65
2021/05/13 03:28:32;;;;;;;;;;;10.30;99.90;;;;;;4981222;28;20093;-65
2021/05/13 03:30:59;;;;;;;50.35;24.92;;;10.30;99.90;;;;;;4984112;28;20343;-65
2021/05/13 03:33:26;;;;;;;46.78;24.02;;;10.30;99.90;;;;;;4984799;28;20057;-65
2021/05/13 03:35:52;;;;;;;46.95;24.33;;;10.40;99.90;;;;;;4983726;28;21159;-66
2021/05/13 03:38:18;;;;;;;;;;;10.40;99.90;;;;;;4984288;28;20647;-65
2021/05/13 03:40:46;;;;;;;47.00;24.30;;;10.30;99.90;;;;;;4986399;28;20653;-65
2021/05/13 03:43:12;;;;;;;45.25;24.27;;;10.30;99.90;;;;;;4983658;28;20084;-65
2021/05/13 03:45:39;;;;;;;;;;;10.30;99.90;;;;;;4983922;28;20803;-65
2021/05/13 03:48:06;;;;;;;47.15;24.70;;;10.30;99.90;;;;;;4986101;28;19925;-66
2021/05/13 03:50:35;;;;;;;46.08;24.25;;;10.30;99.90;;;;;;4986322;28;20061;-65
2021/05/13 03:53:03;;;;;;;45.75;24.75;;;10.30;99.90;;;;;;4985372;28;20060;-66
2021/05/13 03:55:29;;;;;;;44.00;24.52;;;10.30;99.90;;;;;;4984113;28;20053;-66
2021/05/13 03:57:58;;;;;;;46.75;25.77;;;10.30;99.90;;;;;;4982553;28;20463;-66
2021/05/13 04:00:30;;;;;;;45.67;24.10;;;10.30;99.90;;;;;;4983437;28;20083;-66
2021/05/13 04:02:56;;;;;;;45.88;24.67;;;10.30;99.90;;;;;;4978315;28;20054;-65
2021/05/13 04:05:24;;;;;;;46.10;24.92;;;10.30;99.90;;;;;;4979544;28;20361;-65
2021/05/13 04:07:51;;;;;;;46.75;24.52;;;10.40;99.90;;;;;;4975908;28;20057;-66
2021/05/13 04:10:18;;;;;;;50.53;24.75;;;10.40;99.90;;;;;;4976364;28;20076;-66
2021/05/13 04:12:44;;;;;;;;;;;10.30;99.90;;;;;;4978616;28;20077;-66
2021/05/13 04:15:13;;;;;;;46.30;24.20;;;10.30;99.90;;;;;;4978988;28;19928;-66
2021/05/13 04:17:40;;;;;;;48.13;25.17;;;10.40;99.90;;;;;;4982124;28;20469;-66
2021/05/13 04:20:08;;;;;;;49.10;25.98;;;10.40;99.90;;;;;;4983968;28;20049;-66
2021/05/13 04:22:35;;;;;;;46.13;24.58;;;10.50;99.90;;;;;;4984508;28;20060;-66
2021/05/13 04:25:02;;;;;;;46.92;24.52;;;10.50;99.90;;;;;;4982015;28;20053;-66
2021/05/13 04:27:29;;;;;;;43.85;25.15;;;10.60;99.90;;;;;;4984848;28;20140;-66
2021/05/13 04:29:55;;;;;;;;;;;10.70;99.90;;;;;;4983850;28;20103;-67
2021/05/13 04:32:22;;;;;;;42.58;22.35;;;10.60;99.90;;;;;;4981611;28;19972;-66
2021/05/13 04:34:49;;;;;;;45.47;24.60;;;10.70;99.90;;;;;;4985026;28;20093;-66
2021/05/13 04:37:15;;;;;;;38.65;22.77;;;10.70;99.90;;;;;;4983050;28;20081;-66
2021/05/13 04:39:41;;;;;;;;;;;10.80;99.90;;;;;;4981908;28;20084;-66
2021/05/13 04:42:08;;;;;;;35.53;20.88;;;10.90;99.90;;;;;;4983744;28;20030;-66
2021/05/13 04:44:36;;;;;;;38.92;21.48;;;10.80;99.90;;;;;;4981523;28;20135;-66
2021/05/13 04:47:18;;;;;;;36.08;21.17;;;10.80;99.90;;;;;;4981704;28;20049;-65
2021/05/13 04:49:48;;;;;;;38.08;21.20;;;10.80;99.90;;;;;;4983560;28;20061;-65
2021/05/13 04:52:15;;;;;;;38.80;21.80;;;10.70;99.90;;;;;;4980952;28;20137;-65
2021/05/13 04:54:41;;;;;;;34.53;20.63;;;10.70;99.90;;;;;;4983361;28;20096;-65
2021/05/13 04:57:08;;;;;;;33.20;20.33;;;10.80;99.90;;;;;;4982136;28;20084;-65
2021/05/13 04:59:34;;;;;;;36.55;21.98;;;10.80;99.90;;;;;;4984063;28;20547;-66
2021/05/13 05:02:01;;;;;;;30.95;19.40;;;10.80;99.90;;;;;;4982151;28;20467;-67
2021/05/13 05:04:27;;;;;;;;;;;10.80;99.90;;;;;;4982742;28;21558;-66
2021/05/13 05:06:54;;;;;;;30.25;17.77;;;10.90;99.90;;;;;;4982770;28;20034;-66
2021/05/13 05:09:21;;;;;;;31.75;18.92;;;10.90;99.90;;;;;;4987796;28;20841;-66
2021/05/13 05:11:47;;;;;;;31.02;17.58;;;11.00;99.90;;;;;;4988440;28;20085;-66
2021/05/13 05:14:14;;;;;;;;;;;11.00;99.90;;;;;;4985402;28;20054;-66
2021/05/13 05:16:40;;;;;;;26.92;16.70;;;11.00;99.90;;;;;;4990925;28;19972;-66
2021/05/13 05:19:06;;;;;;;;;;;11.00;99.90;;;;;;4989748;28;20096;-66
2021/05/13 05:21:33;;;;;;;29.67;15.88;;;11.00;99.90;;;;;;4985863;28;20000;-66
2021/05/13 05:24:00;;;;;;;;;;;11.00;99.90;;;;;;4982480;28;20058;-66
2021/05/13 05:26:26;;;;;;;25.23;15.43;;;11.10;99.90;;;;;;4983700;28;20374;-65
2021/05/13 05:28:53;;;;;;;27.45;16.65;;;11.10;99.90;;;;;;4988239;28;20148;-65
2021/05/13 05:31:20;;;;;;;29.50;17.70;;;11.10;99.90;;;;;;4987362;28;20141;-65
2021/05/13 05:33:46;;;;;;;26.77;16.88;;;11.00;99.90;;;;;;4990084;28;20055;-65
2021/05/13 05:36:12;;;;;;;;;;;11.10;99.90;;;;;;4989654;28;20050;-65
2021/05/13 05:38:39;;;;;;;26.42;17.40;;;11.20;99.90;;;;;;4990626;28;20760;-65
2021/05/13 05:41:06;;;;;;;31.67;18.65;;;11.20;99.90;;;;;;4988559;28;20089;-66
2021/05/13 05:43:33;;;;;;;36.75;21.35;;;11.20;99.90;;;;;;4989694;28;20060;-65
2021/05/13 05:45:59;;;;;;;;;;;11.20;99.90;;;;;;4988566;28;20092;-65
2021/05/13 05:48:25;;;;;;;31.38;18.05;;;11.30;99.90;;;;;;4988024;28;20309;-66
2021/05/13 05:50:52;;;;;;;;;;;11.30;99.90;;;;;;4993745;28;20145;-65
2021/05/13 05:53:18;;;;;;;31.45;19.30;;;11.30;99.90;;;;;;4994109;28;19925;-66
2021/05/13 05:55:44;;;;;;;;;;;11.40;99.90;;;;;;4997244;28;20084;-66
2021/05/13 05:58:12;;;;;;;31.85;18.92;;;11.50;99.90;;;;;;4993941;28;20023;-66
2021/05/13 06:00:38;;;;;;;27.63;17.08;;;11.40;99.90;;;;;;4993925;28;20576;-66
2021/05/13 06:03:04;;;;;;;;;;;11.40;99.90;;;;;;4993250;28;20635;-67
2021/05/13 06:05:31;;;;;;;29.65;17.48;;;11.50;99.90;;;;;;4993929;28;20019;-66
2021/05/13 06:07:58;;;;;;;29.92;17.88;;;11.50;99.90;;;;;;4997938;28;20815;-66
2021/05/13 06:10:25;;;;;;;25.40;17.20;;;11.50;99.90;;;;;;4997365;28;20111;-66
2021/05/13 06:12:53;;;;;;;25.65;16.98;;;11.60;99.90;;;;;;4996819;28;20062;-66
2021/05/13 06:15:22;;;;;;;29.45;16.00;;;11.60;99.90;;;;;;4995128;28;20100;-66
2021/05/13 06:17:48;;;;;;;24.08;15.57;;;11.70;99.90;;;;;;4994513;28;20133;-66
2021/05/13 06:20:20;;;;;;;24.70;15.07;;;11.80;99.90;;;;;;4994898;28;20065;-67
2021/05/13 06:22:47;;;;;;;23.95;14.85;;;11.90;99.90;;;;;;4996696;28;20103;-65
2021/05/13 06:25:14;;;;;;;23.42;15.02;;;11.90;99.90;;;;;;4995601;28;20132;-66
2021/05/13 06:27:41;;;;;;;24.33;14.85;;;12.10;99.90;;;;;;4996289;28;20053;-66
2021/05/13 06:30:09;;;;;;;24.35;15.32;;;12.10;99.90;;;;;;4996876;28;20065;-66
2021/05/13 06:32:36;;;;;;;23.88;15.00;;;12.10;99.90;;;;;;4996723;28;20144;-66
2021/05/13 06:35:04;;;;;;;22.42;14.90;;;12.10;99.90;;;;;;4996977;28;20049;-66
2021/05/13 06:37:31;;;;;;;24.73;15.05;;;12.10;99.90;;;;;;4996466;28;20506;-66
2021/05/13 06:39:57;;;;;;;20.55;13.68;;;12.20;99.90;;;;;;4991837;28;20080;-65
2021/05/13 06:42:24;;;;;;;;;;;12.40;99.90;;;;;;4995443;28;20117;-66
2021/05/13 06:44:51;;;;;;;19.67;11.93;;;12.50;99.90;;;;;;4991761;28;20667;-66
2021/05/13 06:47:18;;;;;;;21.55;13.25;;;12.60;99.90;;;;;;4994698;28;20046;-66
2021/05/13 06:49:45;;;;;;;18.02;11.10;;;12.60;99.90;;;;;;4991839;28;20081;-65
2021/05/13 06:52:12;;;;;;;17.23;11.98;;;12.70;99.90;;;;;;4992856;28;20115;-66
2021/05/13 06:54:38;;;;;;;17.52;12.20;;;12.70;99.90;;;;;;4994420;28;20057;-67
2021/05/13 06:57:06;;;;;;;17.80;12.00;;;12.80;99.90;;;;;;4992546;28;20064;-66
2021/05/13 06:59:33;;;;;;;16.83;11.27;;;12.80;99.90;;;;;;4990949;28;20126;-66
2021/05/13 07:02:00;;;;;;;17.55;11.35;;;12.70;99.90;;;;;;4992473;28;20061;-64
2021/05/13 07:04:27;;;;;;;17.48;10.40;;;12.80;99.90;;;;;;4985516;28;20490;-65
2021/05/13 07:06:55;;;;;;;18.23;11.73;;;12.70;99.90;;;;;;4991328;28;20069;-65
2021/05/13 07:09:21;;;;;;;16.52;10.52;;;12.70;99.90;;;;;;4992100;28;20063;-66
2021/05/13 07:11:48;;;;;;;16.67;11.00;;;12.70;99.90;;;;;;4989422;28;20091;-65
2021/05/13 07:14:14;;;;;;;21.38;12.15;;;12.70;99.90;;;;;;4988536;28;20470;-65
2021/05/13 07:16:41;;;;;;;18.85;10.82;;;12.70;99.90;;;;;;4990901;28;20076;-66
2021/05/13 07:19:07;;;;;;;18.25;10.52;;;12.50;99.90;;;;;;4992003;28;20115;-64
2021/05/13 07:21:34;;;;;;;19.17;11.02;;;12.50;99.90;;;;;;4990372;28;20151;-64
2021/05/13 07:24:02;;;;;;;16.15;11.00;;;12.50;99.90;;;;;;4991779;28;20169;-66
2021/05/13 07:26:28;;;;;;;17.05;10.93;;;12.50;99.90;;;;;;4988013;28;20049;-66
2021/05/13 07:28:55;;;;;;;;;;;12.50;99.90;;;;;;4988283;28;20091;-64
2021/05/13 07:31:22;;;;;;;17.60;11.52;;;12.40;99.90;;;;;;4989191;28;20008;-63
2021/05/13 07:33:48;;;;;;;14.52;10.15;;;12.40;99.90;;;;;;4984174;28;20049;-64
2021/05/13 07:36:15;;;;;;;23.33;12.45;;;12.40;99.90;;;;;;4983329;28;20088;-64
2021/05/13 07:38:42;;;;;;;19.08;11.38;;;12.40;99.90;;;;;;4979885;28;20064;-65
2021/05/13 07:41:09;;;;;;;16.88;12.18;;;12.40;99.90;;;;;;4982021;28;20058;-66
2021/05/13 07:43:37;;;;;;;20.95;11.40;;;12.50;99.90;;;;;;4983708;28;20116;-66
2021/05/13 07:46:04;;;;;;;17.45;11.00;;;12.60;99.90;;;;;;4985267;28;20068;-64
2021/05/13 07:48:32;;;;;;;19.35;11.50;;;12.60;99.90;;;;;;4982492;28;20092;-65
2021/05/13 07:50:58;;;;;;;18.45;12.27;;;12.60;99.90;;;;;;4986019;28;20064;-66
2021/05/13 07:53:26;;;;;;;17.27;12.05;;;12.60;99.90;;;;;;4981866;28;21308;-65
2021/05/13 07:55:53;;;;;;;18.90;12.23;;;12.70;99.90;;;;;;4982065;28;20533;-65
2021/05/13 07:58:20;;;;;;;20.92;12.38;;;12.70;99.90;;;;;;4979373;28;20085;-65
2021/05/13 08:00:47;;;;;;;16.50;11.68;;;12.70;99.90;;;;;;4987005;28;20095;-64
2021/05/13 08:03:13;;;;;;;19.83;11.18;;;12.90;99.90;;;;;;4984535;28;20531;-63
2021/05/13 08:05:39;;;;;;;;;;;12.80;99.90;;;;;;4985632;28;20154;-64
2021/05/13 08:08:06;;;;;;;16.60;11.55;;;12.80;99.90;;;;;;4980434;28;19972;-63
2021/05/13 08:10:33;;;;;;;17.92;11.85;;;12.90;99.90;;;;;;4986248;28;20109;-64
2021/05/13 08:13:00;;;;;;;19.85;13.27;;;12.90;99.90;;;;;;4988701;28;20545;-63
2021/05/13 08:15:27;;;;;;;18.52;11.30;;;12.90;99.90;;;;;;4982720;28;20058;-63
2021/05/13 08:17:54;;;;;;;20.90;11.77;;;12.80;99.90;;;;;;4979362;28;20466;-64
2021/05/13 08:20:20;;;;;;;;;;;12.90;99.90;;;;;;4984899;28;20137;-64
2021/05/13 08:22:47;;;;;;;16.60;10.73;;;13.00;99.90;;;;;;4982956;28;19928;-65
2021/05/13 08:25:19;;;;;;;18.98;10.63;;;13.00;99.90;;;;;;4983414;28;20059;-66
2021/05/13 08:27:46;;;;;;;18.55;10.52;;;13.00;99.90;;;;;;4984783;28;20049;-66
2021/05/13 08:30:14;;;;;;;16.60;10.95;;;13.10;99.90;;;;;;4984030;28;20099;-67
2021/05/13 08:32:41;;;;;;;16.85;10.40;;;13.20;99.90;;;;;;4982549;28;20670;-67
2021/05/13 08:35:09;;;;;;;19.02;12.07;;;13.10;99.90;;;;;;4980861;28;20093;-66
2021/05/13 08:37:35;;;;;;;19.17;10.90;;;13.00;99.90;;;;;;4980439;28;20060;-66
2021/05/13 08:40:03;;;;;;;20.88;12.25;;;13.00;99.90;;;;;;4982220;28;20057;-65
2021/05/13 08:42:29;;;;;;;19.08;12.65;;;13.10;99.90;;;;;;4985083;28;20058;-65
2021/05/13 08:44:57;;;;;;;19.83;12.60;;;13.10;99.90;;;;;;4980412;28;20475;-65
2021/05/13 08:47:23;;;;;;;19.77;12.82;;;13.30;99.90;;;;;;4979459;28;20430;-65
2021/05/13 08:49:51;;;;;;;17.35;10.60;;;13.30;99.90;;;;;;4983546;28;20832;-66
2021/05/13 08:52:19;;;;;;;17.48;12.25;;;13.30;99.90;;;;;;4984774;28;20136;-66
2021/05/13 08:54:52;;;;;;;16.95;10.32;;;13.40;99.90;;;;;;4982367;28;20148;-65
2021/05/13 08:57:19;;;;;;;16.48;10.80;;;13.40;99.90;;;;;;4982018;28;20068;-64
2021/05/13 08:59:46;;;;;;;17.27;11.38;;;13.40;99.90;;;;;;4983570;28;20084;-66
2021/05/13 09:02:12;;;;;;;18.25;12.07;;;13.40;99.90;;;;;;4983063;28;20502;-64
2021/05/13 09:04:41;;;;;;;19.25;11.13;;;13.40;99.90;;;;;;4985220;28;20057;-66
2021/05/13 09:07:15;;;;;;;18.17;11.48;;;13.40;99.90;;;;;;4983959;28;20053;-66
2021/05/13 09:09:59;;;;;;;17.25;11.52;;;13.30;99.90;;;;;;4983046;28;20065;-65
2021/05/13 09:12:27;;;;;;;19.95;13.35;;;13.30;99.90;;;;;;4981904;28;20054;-64
2021/05/13 09:15:07;;;;;;;18.70;12.77;;;13.30;99.90;;;;;;4982301;28;20057;-65
2021/05/13 09:17:35;;;;;;;16.70;12.48;;;13.40;99.90;;;;;;4982165;28;20053;-65
2021/05/13 09:20:02;;;;;;;17.70;11.98;;;13.40;99.90;;;;;;4980776;28;20053;-65
2021/05/13 09:22:31;;;;;;;22.83;12.57;;;13.50;99.90;;;;;;4979682;28;20053;-65
2021/05/13 09:24:59;;;;;;;18.27;12.30;;;13.50;99.90;;;;;;4983945;28;20061;-65
2021/05/13 09:27:30;;;;;;;18.23;11.82;;;13.60;99.90;;;;;;4973461;28;20057;-65
2021/05/13 09:30:06;;;;;;;17.13;12.75;;;13.60;99.90;;;;;;4972823;28;20054;-65
2021/05/13 09:32:32;;;;;;;17.23;11.82;;;13.60;99.90;;;;;;4981283;28;20977;-65
2021/05/13 09:35:05;;;;;;;17.58;11.38;;;13.70;99.90;;;;;;4985665;28;20056;-65
2021/05/13 09:37:40;;;;;;;16.73;11.07;;;13.80;99.90;;;;;;4990986;28;20150;-65
2021/05/13 09:40:09;;;;;;;17.27;11.73;;;13.80;99.90;;;;;;4986909;28;20053;-64
2021/05/13 09:42:35;;;;;;;15.90;11.00;;;13.80;99.90;;;;;;4989228;28;20099;-64
2021/05/13 09:45:03;;;;;;;19.23;11.55;;;13.60;99.90;;;;;;4992096;28;20108;-64
2021/05/13 09:47:29;;;;;;;17.95;10.63;;;13.70;99.90;;;;;;4989463;28;20160;-64
2021/05/13 09:50:02;;;;;;;15.38;10.90;;;13.80;99.90;;;;;;4990664;28;20054;-64
2021/05/13 09:52:50;;;;;;;16.90;10.57;;;13.80;99.90;;;;;;4990601;28;20546;-64
2021/05/13 09:55:19;;;;;;;14.82;10.43;;;13.80;99.90;;;;;;4992582;28;20510;-64
2021/05/13 09:57:51;;;;;;;15.88;11.05;;;13.90;99.90;;;;;;4991675;28;20058;-64
2021/05/13 10:00:33;;;;;;;16.52;10.02;;;14.00;99.90;;;;;;4983539;28;20054;-64
2021/05/13 10:03:00;;;;;;;13.43;9.35;;;14.20;99.90;;;;;;4979580;28;20045;-64
2021/05/13 10:05:27;;;;;;;13.93;8.30;;;14.50;99.90;;;;;;4979793;28;20045;-64
2021/05/13 10:07:55;;;;;;;15.35;8.82;;;14.60;99.90;;;;;;4977937;28;20056;-64
2021/05/13 10:10:21;;;;;;;15.23;9.45;;;14.70;99.90;;;;;;4982817;28;20049;-64
2021/05/13 10:12:48;;;;;;;12.80;7.88;;;14.80;99.90;;;;;;4982294;28;20049;-64
2021/05/13 10:15:15;;;;;;;13.40;8.52;;;14.80;99.90;;;;;;4982556;28;20049;-64
2021/05/13 10:17:44;;;;;;;14.40;8.27;;;14.90;99.90;;;;;;4983621;28;20081;-64
2021/05/13 10:20:14;;;;;;;12.68;8.38;;;14.90;99.90;;;;;;4984287;28;20914;-64
2021/05/13 10:22:43;;;;;;;12.38;7.63;;;14.90;99.90;;;;;;4981932;28;20580;-64
2021/05/13 10:25:20;;;;;;;12.15;7.93;;;15.00;99.90;;;;;;4982414;28;20564;-64
2021/05/13 10:27:50;;;;;;;15.05;7.97;;;15.00;99.90;;;;;;4979071;28;20057;-64
2021/05/13 10:30:20;;;;;;;16.42;8.18;;;15.30;99.90;;;;;;4980457;28;20049;-64
2021/05/13 10:33:12;;;;;;;10.10;6.75;;;15.20;99.90;;;;;;4987168;28;20085;-64
2021/05/13 10:35:41;;;;;;;10.32;6.35;;;15.50;99.90;;;;;;4985080;28;20061;-64
2021/05/13 10:38:12;;;;;;;10.27;6.82;;;15.20;99.90;;;;;;4984157;28;20077;-64
2021/05/13 10:40:45;;;;;;;10.65;6.32;;;15.60;99.90;;;;;;4983488;28;20120;-64
2021/05/13 10:43:12;;;;;;;9.77;6.13;;;15.70;99.90;;;;;;4972476;28;20050;-64
2021/05/13 10:45:43;;;;;;;10.93;6.22;;;15.70;99.90;;;;;;4981324;28;20107;-64
2021/05/13 10:48:12;;;;;;;12.73;5.85;;;15.50;99.90;;;;;;4980921;28;20077;-64
2021/05/13 10:50:43;;;;;;;11.52;6.45;;;16.00;99.90;;;;;;4982017;28;20123;-64
2021/05/13 10:53:39;;;;;;;16.42;6.20;;;16.40;99.90;;;;;;4984854;28;20573;-65
2021/05/13 10:56:34;;;;;;;8.48;5.40;;;16.90;99.90;;;;;;4983684;28;20140;-66
2021/05/13 10:59:15;;;;;;;13.82;6.10;;;17.60;99.90;;;;;;4984553;28;20053;-65
2021/05/13 11:01:47;;;;;;;11.07;5.15;;;18.00;99.90;;;;;;4993934;28;20054;-67
2021/05/13 11:04:41;;;;;;;9.90;5.30;;;18.10;99.90;;;;;;4988358;28;20057;-66
2021/05/13 11:07:38;;;;;;;10.25;4.90;;;18.20;99.90;;;;;;4989817;28;20510;-66
2021/05/13 11:10:07;;;;;;;10.00;5.05;;;18.50;99.90;;;;;;4926942;28;20098;-65
2021/05/13 11:12:42;;;;;;;11.23;4.78;;;19.10;99.90;;;;;;4978928;28;20057;-65
2021/05/13 11:15:23;;;;;;;11.48;5.55;;;19.60;99.90;;;;;;4991379;28;20291;-66
2021/05/13 11:18:08;;;;;;;12.38;5.95;;;19.80;99.90;;;;;;4989692;28;20107;-66
2021/05/13 11:20:37;;;;;;;13.05;5.30;;;19.50;99.90;;;;;;4990873;28;20079;-66
2021/05/13 11:23:05;;;;;;;10.82;4.90;;;19.70;99.90;;;;;;4992736;28;20814;-66
2021/05/13 11:25:38;;;;;;;11.10;4.45;;;20.20;99.90;;;;;;4989318;28;20580;-65
2021/05/13 11:28:33;;;;;;;10.80;4.72;;;20.40;99.90;;;;;;4989775;28;20041;-66
2021/05/13 11:31:18;;;;;;;10.95;4.95;;;20.40;99.90;;;;;;4957948;28;20968;-66
2021/05/13 11:33:47;;;;;;;10.63;4.30;;;20.30;99.90;;;;;;4991359;28;20054;-65
2021/05/13 11:36:15;;;;;;;13.40;4.75;;;20.40;99.90;;;;;;4990193;28;20506;-65
2021/05/13 11:38:42;;;;;;;9.13;4.57;;;20.50;99.90;;;;;;4991345;28;20103;-65
2021/05/13 11:41:09;;;;;;;8.73;4.15;;;20.50;99.90;;;;;;4991694;28;20049;-65
2021/05/13 11:43:39;;;;;;;8.02;3.65;;;20.10;99.90;;;;;;4991105;28;20422;-65
2021/05/13 11:46:07;;;;;;;7.78;3.42;;;20.40;99.90;;;;;;4995043;28;20331;-65
2021/05/13 11:48:36;;;;;;;7.18;3.50;;;20.30;99.90;;;;;;4993431;28;20053;-65
2021/05/13 11:51:05;;;;;;;9.80;4.05;;;20.40;99.90;;;;;;4994303;28;20095;-65
2021/05/13 11:53:32;;;;;;;7.50;3.75;;;20.10;99.90;;;;;;4992597;28;20160;-65
2021/05/13 11:55:59;;;;;;;11.18;3.63;;;20.00;99.90;;;;;;4996178;28;20088;-65
2021/05/13 11:58:42;;;;;;;8.80;3.40;;;19.50;99.90;;;;;;4992626;28;20208;-65
2021/05/13 12:01:20;;;;;;;8.57;3.80;;;19.60;99.90;;;;;;4995804;28;20052;-65
2021/05/13 12:03:48;;;;;;;8.25;4.07;;;19.80;99.90;;;;;;4993913;28;20055;-65
2021/05/13 12:06:14;;;;;;;9.68;3.60;;;19.80;99.90;;;;;;4991119;28;20594;-67
2021/05/13 12:08:41;;;;;;;7.63;3.80;;;19.30;99.90;;;;;;4990228;28;20712;-65
2021/05/13 12:11:22;;;;;;;7.60;3.78;;;19.30;99.90;;;;;;4991922;28;20046;-65
2021/05/13 12:13:51;;;;;;;11.13;3.83;;;19.30;99.90;;;;;;4992395;28;20494;-65
2021/05/13 12:16:19;;;;;;;6.93;3.70;;;18.80;99.90;;;;;;4992648;28;20089;-67
2021/05/13 12:18:47;;;;;;;8.43;3.78;;;18.90;99.90;;;;;;4991588;28;20049;-65
2021/05/13 12:21:16;;;;;;;9.52;3.75;;;18.90;99.90;;;;;;4988184;28;20507;-66
2021/05/13 12:23:44;;;;;;;10.07;4.30;;;18.80;99.90;;;;;;4987915;28;20105;-64
2021/05/13 12:26:13;;;;;;;10.57;4.28;;;18.70;99.90;;;;;;4988483;28;20100;-65
2021/05/13 12:28:43;;;;;;;10.27;3.58;;;18.70;99.90;;;;;;4993166;28;20495;-65
2021/05/13 12:31:23;;;;;;;7.78;4.10;;;18.60;99.90;;;;;;4993369;28;20049;-64
2021/05/13 12:33:49;;;;;;;10.27;3.92;;;18.50;99.90;;;;;;4989236;28;20089;-65
2021/05/13 12:36:16;;;;;;;8.48;4.03;;;18.50;99.90;;;;;;4993504;28;20049;-65
2021/05/13 12:38:44;;;;;;;10.10;4.38;;;18.20;99.90;;;;;;4991567;28;20092;-65
2021/05/13 12:41:12;;;;;;;9.95;4.60;;;18.30;99.90;;;;;;4986108;28;20422;-67
2021/05/13 12:43:39;;;;;;;15.43;4.47;;;18.00;99.90;;;;;;4992053;28;20153;-67
2021/05/13 12:46:23;;;;;;;8.35;4.10;;;17.90;99.90;;;;;;4993731;28;20045;-66